sensor_id;sensor_type;location;lat;lon;timestamp;P1;durP1;ratioP1;P2;durP2;ratioP2
77246;SDS011;66279;42.820;23.374;2023-05-16T00:02:20;46.85;;;23.15;;
77246;SDS011;66279;42.820;23.374;2023-05-16T00:04:46;38.70;;;20.88;;
77246;SDS011;66279;42.820;23.374;2023-05-16T00:07:12;37.08;;;20.45;;
77246;SDS011;66279;42.820;23.374;2023-05-16T00:09:38;38.90;;;20.40;;
77246;SDS011;66279;42.820;23.374;2023-05-16T00:12:04;41.60;;;22.05;;
77246;SDS011;66279;42.820;23.374;2023-05-16T00:14:29;36.55;;;20.20;;
77246;SDS011;66279;42.820;23.374;2023-05-16T00:16:55;33.83;;;19.10;;
77246;SDS011;66279;42.820;23.374;2023-05-16T00:19:24;44.63;;;21.40;;
77246;SDS011;66279;42.820;23.374;2023-05-16T00:21:51;32.13;;;18.80;;
77246;SDS011;66279;42.820;23.374;2023-05-16T00:24:17;36.22;;;21.55;;
77246;SDS011;66279;42.820;23.374;2023-05-16T00:26:43;43.13;;;20.23;;
77246;SDS011;66279;42.820;23.374;2023-05-16T00:29:08;34.80;;;19.30;;
77246;SDS011;66279;42.820;23.374;2023-05-16T00:31:34;46.85;;;22.90;;
77246;SDS011;66279;42.820;23.374;2023-05-16T00:33:59;35.28;;;21.02;;
77246;SDS011;66279;42.820;23.374;2023-05-16T00:36:25;35.72;;;20.52;;
77246;SDS011;66279;42.820;23.374;2023-05-16T00:38:50;37.83;;;19.58;;
77246;SDS011;66279;42.820;23.374;2023-05-16T00:41:16;36.88;;;18.98;;
77246;SDS011;66279;42.820;23.374;2023-05-16T00:43:42;36.50;;;19.77;;
77246;SDS011;66279;42.820;23.374;2023-05-16T00:46:07;33.80;;;19.15;;
77246;SDS011;66279;42.820;23.374;2023-05-16T00:48:33;31.55;;;19.17;;
77246;SDS011;66279;42.820;23.374;2023-05-16T00:50:59;38.80;;;20.17;;
77246;SDS011;66279;42.820;23.374;2023-05-16T00:53:25;39.13;;;20.25;;
77246;SDS011;66279;42.820;23.374;2023-05-16T00:55:51;36.70;;;20.55;;
77246;SDS011;66279;42.820;23.374;2023-05-16T00:58:17;38.47;;;20.38;;
77246;SDS011;66279;42.820;23.374;2023-05-16T01:00:43;33.00;;;19.05;;
77246;SDS011;66279;42.820;23.374;2023-05-16T01:03:09;31.92;;;19.38;;
77246;SDS011;66279;42.820;23.374;2023-05-16T01:05:36;33.35;;;18.70;;
77246;SDS011;66279;42.820;23.374;2023-05-16T01:08:01;33.63;;;19.30;;
77246;SDS011;66279;42.820;23.374;2023-05-16T01:10:28;26.27;;;16.95;;
77246;SDS011;66279;42.820;23.374;2023-05-16T01:13:23;34.03;;;18.90;;
77246;SDS011;66279;42.820;23.374;2023-05-16T01:16:06;33.45;;;19.27;;
77246;SDS011;66279;42.820;23.374;2023-05-16T01:18:51;34.63;;;20.00;;
77246;SDS011;66279;42.820;23.374;2023-05-16T01:21:37;38.80;;;18.83;;
77246;SDS011;66279;42.820;23.374;2023-05-16T01:24:13;29.02;;;16.75;;
77246;SDS011;66279;42.820;23.374;2023-05-16T01:26:54;36.67;;;16.08;;
77246;SDS011;66279;42.820;23.374;2023-05-16T01:29:21;35.38;;;17.58;;
77246;SDS011;66279;42.820;23.374;2023-05-16T01:31:47;30.88;;;17.13;;
77246;SDS011;66279;42.820;23.374;2023-05-16T01:34:13;32.20;;;18.10;;
77246;SDS011;66279;42.820;23.374;2023-05-16T01:42:22;37.63;;;19.08;;
77246;SDS011;66279;42.820;23.374;2023-05-16T01:47:22;31.65;;;17.88;;
77246;SDS011;66279;42.820;23.374;2023-05-16T01:52:32;32.28;;;17.80;;
77246;SDS011;66279;42.820;23.374;2023-05-16T01:55:03;30.25;;;16.90;;
77246;SDS011;66279;42.820;23.374;2023-05-16T01:57:29;32.53;;;16.40;;
77246;SDS011;66279;42.820;23.374;2023-05-16T01:59:59;33.58;;;19.05;;
77246;SDS011;66279;42.820;23.374;2023-05-16T02:02:24;25.70;;;16.45;;
77246;SDS011;66279;42.820;23.374;2023-05-16T02:04:50;29.73;;;17.05;;
77246;SDS011;66279;42.820;23.374;2023-05-16T02:07:15;33.65;;;16.63;;
77246;SDS011;66279;42.820;23.374;2023-05-16T02:09:41;34.63;;;17.83;;
77246;SDS011;66279;42.820;23.374;2023-05-16T02:12:06;28.55;;;15.70;;
77246;SDS011;66279;42.820;23.374;2023-05-16T02:14:32;31.92;;;17.08;;
77246;SDS011;66279;42.820;23.374;2023-05-16T02:16:58;30.50;;;16.02;;
77246;SDS011;66279;42.820;23.374;2023-05-16T02:19:23;25.75;;;15.70;;
77246;SDS011;66279;42.820;23.374;2023-05-16T02:21:49;29.90;;;15.85;;
77246;SDS011;66279;42.820;23.374;2023-05-16T02:24:15;24.52;;;14.57;;
77246;SDS011;66279;42.820;23.374;2023-05-16T02:26:40;34.97;;;16.55;;
77246;SDS011;66279;42.820;23.374;2023-05-16T02:29:06;27.95;;;15.85;;
77246;SDS011;66279;42.820;23.374;2023-05-16T02:31:32;29.58;;;15.15;;
77246;SDS011;66279;42.820;23.374;2023-05-16T02:34:01;26.13;;;15.88;;
77246;SDS011;66279;42.820;23.374;2023-05-16T02:36:26;71.20;;;24.60;;
77246;SDS011;66279;42.820;23.374;2023-05-16T02:38:52;33.35;;;17.20;;
77246;SDS011;66279;42.820;23.374;2023-05-16T02:41:18;38.35;;;20.00;;
77246;SDS011;66279;42.820;23.374;2023-05-16T02:43:45;31.58;;;16.48;;
77246;SDS011;66279;42.820;23.374;2023-05-16T02:46:20;27.35;;;15.70;;
77246;SDS011;66279;42.820;23.374;2023-05-16T02:48:54;29.90;;;15.43;;
77246;SDS011;66279;42.820;23.374;2023-05-16T02:51:21;28.67;;;16.40;;
77246;SDS011;66279;42.820;23.374;2023-05-16T02:53:48;30.42;;;15.07;;
77246;SDS011;66279;42.820;23.374;2023-05-16T02:56:13;40.17;;;16.25;;
77246;SDS011;66279;42.820;23.374;2023-05-16T02:58:40;34.63;;;16.08;;
77246;SDS011;66279;42.820;23.374;2023-05-16T03:01:06;32.08;;;16.90;;
77246;SDS011;66279;42.820;23.374;2023-05-16T03:03:32;31.90;;;17.30;;
77246;SDS011;66279;42.820;23.374;2023-05-16T03:05:59;30.35;;;17.40;;
77246;SDS011;66279;42.820;23.374;2023-05-16T03:08:25;28.38;;;16.42;;
77246;SDS011;66279;42.820;23.374;2023-05-16T03:10:50;33.65;;;16.90;;
77246;SDS011;66279;42.820;23.374;2023-05-16T03:13:16;28.50;;;15.80;;
77246;SDS011;66279;42.820;23.374;2023-05-16T03:15:42;31.30;;;17.20;;
77246;SDS011;66279;42.820;23.374;2023-05-16T03:18:08;27.45;;;16.27;;
77246;SDS011;66279;42.820;23.374;2023-05-16T03:20:34;26.27;;;16.05;;
77246;SDS011;66279;42.820;23.374;2023-05-16T03:22:59;29.38;;;16.33;;
77246;SDS011;66279;42.820;23.374;2023-05-16T03:25:25;24.42;;;14.65;;
77246;SDS011;66279;42.820;23.374;2023-05-16T03:27:51;25.15;;;15.40;;
77246;SDS011;66279;42.820;23.374;2023-05-16T03:30:16;33.40;;;16.48;;
77246;SDS011;66279;42.820;23.374;2023-05-16T03:32:44;28.02;;;15.13;;
77246;SDS011;66279;42.820;23.374;2023-05-16T03:35:10;26.98;;;16.55;;
77246;SDS011;66279;42.820;23.374;2023-05-16T03:37:36;29.63;;;15.05;;
77246;SDS011;66279;42.820;23.374;2023-05-16T03:40:02;36.55;;;17.20;;
77246;SDS011;66279;42.820;23.374;2023-05-16T03:42:31;28.50;;;15.50;;
77246;SDS011;66279;42.820;23.374;2023-05-16T03:44:57;35.40;;;16.45;;
77246;SDS011;66279;42.820;23.374;2023-05-16T03:47:22;60.72;;;21.70;;
77246;SDS011;66279;42.820;23.374;2023-05-16T03:49:48;35.08;;;17.85;;
77246;SDS011;66279;42.820;23.374;2023-05-16T03:52:13;31.27;;;16.02;;
77246;SDS011;66279;42.820;23.374;2023-05-16T03:54:39;28.52;;;14.77;;
77246;SDS011;66279;42.820;23.374;2023-05-16T03:57:04;30.60;;;16.02;;
77246;SDS011;66279;42.820;23.374;2023-05-16T03:59:30;41.47;;;15.85;;
77246;SDS011;66279;42.820;23.374;2023-05-16T04:01:55;74.40;;;25.42;;
77246;SDS011;66279;42.820;23.374;2023-05-16T04:04:21;59.15;;;20.70;;
77246;SDS011;66279;42.820;23.374;2023-05-16T04:06:47;53.20;;;23.17;;
77246;SDS011;66279;42.820;23.374;2023-05-16T04:09:12;35.13;;;17.77;;
77246;SDS011;66279;42.820;23.374;2023-05-16T04:11:38;35.85;;;17.90;;
77246;SDS011;66279;42.820;23.374;2023-05-16T04:14:03;37.63;;;18.48;;
77246;SDS011;66279;42.820;23.374;2023-05-16T04:16:29;32.45;;;18.20;;
77246;SDS011;66279;42.820;23.374;2023-05-16T04:18:55;33.30;;;17.17;;
77246;SDS011;66279;42.820;23.374;2023-05-16T04:21:21;26.67;;;15.30;;
77246;SDS011;66279;42.820;23.374;2023-05-16T04:23:46;32.38;;;15.90;;
77246;SDS011;66279;42.820;23.374;2023-05-16T04:26:12;29.38;;;15.15;;
77246;SDS011;66279;42.820;23.374;2023-05-16T04:28:38;33.47;;;18.60;;
77246;SDS011;66279;42.820;23.374;2023-05-16T04:31:05;39.03;;;19.23;;
77246;SDS011;66279;42.820;23.374;2023-05-16T04:33:32;31.30;;;17.98;;
77246;SDS011;66279;42.820;23.374;2023-05-16T04:35:58;32.70;;;16.88;;
77246;SDS011;66279;42.820;23.374;2023-05-16T04:38:24;25.60;;;15.40;;
77246;SDS011;66279;42.820;23.374;2023-05-16T04:40:50;27.88;;;15.93;;
77246;SDS011;66279;42.820;23.374;2023-05-16T04:43:16;31.17;;;16.27;;
77246;SDS011;66279;42.820;23.374;2023-05-16T04:45:42;32.28;;;17.48;;
77246;SDS011;66279;42.820;23.374;2023-05-16T04:48:09;33.78;;;19.63;;
77246;SDS011;66279;42.820;23.374;2023-05-16T04:50:35;28.60;;;17.30;;
77246;SDS011;66279;42.820;23.374;2023-05-16T04:53:01;33.95;;;20.85;;
77246;SDS011;66279;42.820;23.374;2023-05-16T04:55:27;34.45;;;19.55;;
77246;SDS011;66279;42.820;23.374;2023-05-16T04:57:52;31.35;;;17.63;;
77246;SDS011;66279;42.820;23.374;2023-05-16T05:00:18;39.50;;;18.75;;
77246;SDS011;66279;42.820;23.374;2023-05-16T05:02:43;32.25;;;17.20;;
77246;SDS011;66279;42.820;23.374;2023-05-16T05:05:09;34.10;;;19.50;;
77246;SDS011;66279;42.820;23.374;2023-05-16T05:07:35;30.38;;;16.92;;
77246;SDS011;66279;42.820;23.374;2023-05-16T05:10:00;30.65;;;17.98;;
77246;SDS011;66279;42.820;23.374;2023-05-16T05:12:26;33.30;;;18.35;;
77246;SDS011;66279;42.820;23.374;2023-05-16T05:14:52;36.83;;;18.60;;
77246;SDS011;66279;42.820;23.374;2023-05-16T05:17:18;36.80;;;19.50;;
77246;SDS011;66279;42.820;23.374;2023-05-16T05:19:44;35.53;;;20.25;;
77246;SDS011;66279;42.820;23.374;2023-05-16T05:22:10;29.42;;;18.50;;
77246;SDS011;66279;42.820;23.374;2023-05-16T05:24:36;38.20;;;19.33;;
77246;SDS011;66279;42.820;23.374;2023-05-16T05:27:01;35.97;;;19.27;;
77246;SDS011;66279;42.820;23.374;2023-05-16T05:29:27;35.25;;;18.83;;
77246;SDS011;66279;42.820;23.374;2023-05-16T05:31:53;46.08;;;22.40;;
77246;SDS011;66279;42.820;23.374;2023-05-16T05:34:18;53.05;;;25.45;;
77246;SDS011;66279;42.820;23.374;2023-05-16T05:36:44;36.22;;;19.00;;
77246;SDS011;66279;42.820;23.374;2023-05-16T05:39:09;40.40;;;19.80;;
77246;SDS011;66279;42.820;23.374;2023-05-16T05:41:35;41.58;;;19.10;;
77246;SDS011;66279;42.820;23.374;2023-05-16T05:44:01;37.25;;;18.90;;
77246;SDS011;66279;42.820;23.374;2023-05-16T05:46:27;39.72;;;20.00;;
77246;SDS011;66279;42.820;23.374;2023-05-16T05:48:52;35.53;;;19.33;;
77246;SDS011;66279;42.820;23.374;2023-05-16T05:51:18;38.30;;;20.85;;
77246;SDS011;66279;42.820;23.374;2023-05-16T05:53:44;42.65;;;21.80;;
77246;SDS011;66279;42.820;23.374;2023-05-16T05:56:09;51.05;;;23.98;;
77246;SDS011;66279;42.820;23.374;2023-05-16T05:58:35;43.33;;;23.23;;
77246;SDS011;66279;42.820;23.374;2023-05-16T06:01:00;78.03;;;29.45;;
77246;SDS011;66279;42.820;23.374;2023-05-16T06:03:26;53.15;;;24.67;;
77246;SDS011;66279;42.820;23.374;2023-05-16T06:05:52;55.90;;;30.40;;
77246;SDS011;66279;42.820;23.374;2023-05-16T06:08:17;40.65;;;22.25;;
77246;SDS011;66279;42.820;23.374;2023-05-16T06:10:43;44.00;;;21.80;;
77246;SDS011;66279;42.820;23.374;2023-05-16T06:13:09;58.70;;;23.50;;
77246;SDS011;66279;42.820;23.374;2023-05-16T06:15:34;79.13;;;47.55;;
77246;SDS011;66279;42.820;23.374;2023-05-16T06:18:00;51.30;;;26.55;;
77246;SDS011;66279;42.820;23.374;2023-05-16T06:20:26;62.40;;;25.50;;
77246;SDS011;66279;42.820;23.374;2023-05-16T06:22:51;57.55;;;25.85;;
77246;SDS011;66279;42.820;23.374;2023-05-16T06:25:17;102.35;;;38.17;;
77246;SDS011;66279;42.820;23.374;2023-05-16T06:27:42;75.38;;;32.05;;
77246;SDS011;66279;42.820;23.374;2023-05-16T06:30:08;76.75;;;32.60;;
77246;SDS011;66279;42.820;23.374;2023-05-16T06:32:34;87.47;;;37.58;;
77246;SDS011;66279;42.820;23.374;2023-05-16T06:34:59;76.70;;;35.30;;
77246;SDS011;66279;42.820;23.374;2023-05-16T06:37:25;67.03;;;31.27;;
77246;SDS011;66279;42.820;23.374;2023-05-16T06:39:51;64.43;;;29.80;;
77246;SDS011;66279;42.820;23.374;2023-05-16T06:42:16;46.33;;;24.35;;
77246;SDS011;66279;42.820;23.374;2023-05-16T06:44:43;37.33;;;20.40;;
77246;SDS011;66279;42.820;23.374;2023-05-16T06:47:08;36.55;;;20.65;;
77246;SDS011;66279;42.820;23.374;2023-05-16T06:49:34;40.45;;;21.23;;
77246;SDS011;66279;42.820;23.374;2023-05-16T06:51:59;36.55;;;19.77;;
77246;SDS011;66279;42.820;23.374;2023-05-16T06:54:26;36.65;;;19.70;;
77246;SDS011;66279;42.820;23.374;2023-05-16T06:56:52;48.65;;;21.05;;
77246;SDS011;66279;42.820;23.374;2023-05-16T06:59:17;36.78;;;20.05;;
77246;SDS011;66279;42.820;23.374;2023-05-16T07:01:43;36.88;;;20.27;;
77246;SDS011;66279;42.820;23.374;2023-05-16T07:04:08;37.03;;;19.95;;
77246;SDS011;66279;42.820;23.374;2023-05-16T07:06:34;36.83;;;19.40;;
77246;SDS011;66279;42.820;23.374;2023-05-16T07:08:59;36.42;;;20.52;;
77246;SDS011;66279;42.820;23.374;2023-05-16T07:11:26;57.15;;;22.17;;
77246;SDS011;66279;42.820;23.374;2023-05-16T07:13:51;38.28;;;19.45;;
77246;SDS011;66279;42.820;23.374;2023-05-16T07:16:17;42.08;;;19.83;;
77246;SDS011;66279;42.820;23.374;2023-05-16T07:18:43;44.60;;;21.23;;
77246;SDS011;66279;42.820;23.374;2023-05-16T07:21:08;39.13;;;20.73;;
77246;SDS011;66279;42.820;23.374;2023-05-16T07:23:34;39.88;;;21.98;;
77246;SDS011;66279;42.820;23.374;2023-05-16T07:25:59;38.97;;;21.33;;
77246;SDS011;66279;42.820;23.374;2023-05-16T07:28:25;41.28;;;20.92;;
77246;SDS011;66279;42.820;23.374;2023-05-16T07:30:50;37.33;;;20.30;;
77246;SDS011;66279;42.820;23.374;2023-05-16T07:33:16;38.13;;;19.77;;
77246;SDS011;66279;42.820;23.374;2023-05-16T07:35:42;43.47;;;20.55;;
77246;SDS011;66279;42.820;23.374;2023-05-16T07:38:07;44.50;;;20.40;;
77246;SDS011;66279;42.820;23.374;2023-05-16T07:40:33;35.03;;;20.15;;
77246;SDS011;66279;42.820;23.374;2023-05-16T07:42:58;42.60;;;21.98;;
77246;SDS011;66279;42.820;23.374;2023-05-16T07:45:24;41.35;;;21.02;;
77246;SDS011;66279;42.820;23.374;2023-05-16T07:47:50;37.90;;;19.15;;
77246;SDS011;66279;42.820;23.374;2023-05-16T07:50:15;42.83;;;21.40;;
77246;SDS011;66279;42.820;23.374;2023-05-16T07:52:41;40.22;;;21.65;;
77246;SDS011;66279;42.820;23.374;2023-05-16T07:55:06;38.60;;;19.67;;
77246;SDS011;66279;42.820;23.374;2023-05-16T07:57:32;40.97;;;20.85;;
77246;SDS011;66279;42.820;23.374;2023-05-16T07:59:58;38.60;;;21.63;;
77246;SDS011;66279;42.820;23.374;2023-05-16T08:02:23;41.83;;;21.02;;
77246;SDS011;66279;42.820;23.374;2023-05-16T08:04:50;39.45;;;20.48;;
77246;SDS011;66279;42.820;23.374;2023-05-16T08:07:15;33.38;;;17.52;;
77246;SDS011;66279;42.820;23.374;2023-05-16T08:09:41;38.97;;;18.58;;
77246;SDS011;66279;42.820;23.374;2023-05-16T08:12:07;37.65;;;17.48;;
77246;SDS011;66279;42.820;23.374;2023-05-16T08:14:33;27.20;;;15.77;;
77246;SDS011;66279;42.820;23.374;2023-05-16T08:16:59;32.83;;;18.23;;
77246;SDS011;66279;42.820;23.374;2023-05-16T08:19:24;32.38;;;16.92;;
77246;SDS011;66279;42.820;23.374;2023-05-16T08:21:50;32.42;;;17.15;;
77246;SDS011;66279;42.820;23.374;2023-05-16T08:24:16;36.08;;;18.52;;
77246;SDS011;66279;42.820;23.374;2023-05-16T08:26:41;33.53;;;17.10;;
77246;SDS011;66279;42.820;23.374;2023-05-16T08:29:07;29.67;;;16.27;;
77246;SDS011;66279;42.820;23.374;2023-05-16T08:31:32;36.88;;;16.80;;
77246;SDS011;66279;42.820;23.374;2023-05-16T08:33:58;37.10;;;17.92;;
77246;SDS011;66279;42.820;23.374;2023-05-16T08:36:25;30.80;;;16.77;;
77246;SDS011;66279;42.820;23.374;2023-05-16T08:38:51;31.95;;;16.80;;
77246;SDS011;66279;42.820;23.374;2023-05-16T08:41:17;31.55;;;18.63;;
77246;SDS011;66279;42.820;23.374;2023-05-16T08:43:42;39.72;;;17.50;;
77246;SDS011;66279;42.820;23.374;2023-05-16T08:46:08;28.70;;;15.88;;
77246;SDS011;66279;42.820;23.374;2023-05-16T08:48:35;33.78;;;16.92;;
77246;SDS011;66279;42.820;23.374;2023-05-16T08:51:01;30.33;;;17.10;;
77246;SDS011;66279;42.820;23.374;2023-05-16T08:53:31;35.03;;;17.05;;
77246;SDS011;66279;42.820;23.374;2023-05-16T08:56:01;33.10;;;17.02;;
77246;SDS011;66279;42.820;23.374;2023-05-16T08:58:28;34.38;;;16.05;;
77246;SDS011;66279;42.820;23.374;2023-05-16T09:00:54;34.35;;;17.13;;
77246;SDS011;66279;42.820;23.374;2023-05-16T09:03:26;39.00;;;17.58;;
77246;SDS011;66279;42.820;23.374;2023-05-16T09:05:52;34.83;;;17.25;;
77246;SDS011;66279;42.820;23.374;2023-05-16T09:08:18;31.25;;;17.30;;
77246;SDS011;66279;42.820;23.374;2023-05-16T09:10:44;34.00;;;18.35;;
77246;SDS011;66279;42.820;23.374;2023-05-16T09:13:09;30.38;;;15.82;;
77246;SDS011;66279;42.820;23.374;2023-05-16T09:15:35;32.30;;;17.00;;
77246;SDS011;66279;42.820;23.374;2023-05-16T09:18:01;27.35;;;15.32;;
77246;SDS011;66279;42.820;23.374;2023-05-16T09:20:27;32.83;;;17.35;;
77246;SDS011;66279;42.820;23.374;2023-05-16T09:22:57;27.85;;;15.30;;
77246;SDS011;66279;42.820;23.374;2023-05-16T09:25:28;29.30;;;16.05;;
77246;SDS011;66279;42.820;23.374;2023-05-16T09:27:59;30.77;;;17.50;;
77246;SDS011;66279;42.820;23.374;2023-05-16T09:30:31;28.48;;;16.02;;
77246;SDS011;66279;42.820;23.374;2023-05-16T09:32:58;34.40;;;18.70;;
77246;SDS011;66279;42.820;23.374;2023-05-16T09:35:27;33.65;;;20.58;;
77246;SDS011;66279;42.820;23.374;2023-05-16T09:37:55;27.17;;;13.85;;
77246;SDS011;66279;42.820;23.374;2023-05-16T09:40:21;27.33;;;14.85;;
77246;SDS011;66279;42.820;23.374;2023-05-16T09:42:52;24.63;;;13.52;;
77246;SDS011;66279;42.820;23.374;2023-05-16T09:45:32;26.35;;;14.95;;
77246;SDS011;66279;42.820;23.374;2023-05-16T09:50:30;32.60;;;14.30;;
77246;SDS011;66279;42.820;23.374;2023-05-16T09:52:57;27.90;;;14.57;;
77246;SDS011;66279;42.820;23.374;2023-05-16T09:55:22;23.73;;;14.45;;
77246;SDS011;66279;42.820;23.374;2023-05-16T09:57:48;26.85;;;13.82;;
77246;SDS011;66279;42.820;23.374;2023-05-16T10:00:14;19.40;;;12.45;;
77246;SDS011;66279;42.820;23.374;2023-05-16T10:02:40;25.70;;;13.32;;
77246;SDS011;66279;42.820;23.374;2023-05-16T10:05:07;25.63;;;13.30;;
77246;SDS011;66279;42.820;23.374;2023-05-16T10:07:33;30.55;;;14.23;;
77246;SDS011;66279;42.820;23.374;2023-05-16T10:09:59;21.80;;;13.30;;
77246;SDS011;66279;42.820;23.374;2023-05-16T10:12:35;28.40;;;12.63;;
77246;SDS011;66279;42.820;23.374;2023-05-16T10:15:03;37.95;;;15.68;;
77246;SDS011;66279;42.820;23.374;2023-05-16T10:17:30;22.63;;;13.00;;
77246;SDS011;66279;42.820;23.374;2023-05-16T10:20:05;23.13;;;11.98;;
77246;SDS011;66279;42.820;23.374;2023-05-16T10:22:34;34.25;;;17.48;;
77246;SDS011;66279;42.820;23.374;2023-05-16T10:25:07;34.15;;;14.43;;
77246;SDS011;66279;42.820;23.374;2023-05-16T10:27:34;23.17;;;12.18;;
77246;SDS011;66279;42.820;23.374;2023-05-16T10:30:00;25.45;;;12.70;;
77246;SDS011;66279;42.820;23.374;2023-05-16T10:32:26;22.55;;;12.50;;
77246;SDS011;66279;42.820;23.374;2023-05-16T10:34:53;24.70;;;12.30;;
77246;SDS011;66279;42.820;23.374;2023-05-16T10:37:20;28.50;;;12.00;;
77246;SDS011;66279;42.820;23.374;2023-05-16T10:39:47;19.05;;;11.70;;
77246;SDS011;66279;42.820;23.374;2023-05-16T10:42:13;22.27;;;12.20;;
77246;SDS011;66279;42.820;23.374;2023-05-16T10:44:42;26.13;;;12.93;;
77246;SDS011;66279;42.820;23.374;2023-05-16T10:47:07;20.38;;;10.57;;
77246;SDS011;66279;42.820;23.374;2023-05-16T10:49:33;24.45;;;11.70;;
77246;SDS011;66279;42.820;23.374;2023-05-16T10:54:35;22.75;;;11.80;;
77246;SDS011;66279;42.820;23.374;2023-05-16T10:57:04;24.42;;;11.63;;
77246;SDS011;66279;42.820;23.374;2023-05-16T10:59:41;30.05;;;12.25;;
77246;SDS011;66279;42.820;23.374;2023-05-16T11:04:53;17.77;;;9.77;;
77246;SDS011;66279;42.820;23.374;2023-05-16T11:07:21;23.10;;;10.05;;
77246;SDS011;66279;42.820;23.374;2023-05-16T11:09:52;22.20;;;10.02;;
77246;SDS011;66279;42.820;23.374;2023-05-16T11:12:41;17.98;;;9.88;;
77246;SDS011;66279;42.820;23.374;2023-05-16T11:17:49;22.83;;;10.23;;
77246;SDS011;66279;42.820;23.374;2023-05-16T11:20:31;21.67;;;10.55;;
77246;SDS011;66279;42.820;23.374;2023-05-16T11:25:47;20.98;;;10.63;;
77246;SDS011;66279;42.820;23.374;2023-05-16T11:28:17;18.85;;;9.73;;
77246;SDS011;66279;42.820;23.374;2023-05-16T11:30:48;19.85;;;12.20;;
77246;SDS011;66279;42.820;23.374;2023-05-16T11:33:16;25.95;;;11.23;;
77246;SDS011;66279;42.820;23.374;2023-05-16T11:35:42;21.90;;;11.07;;
77246;SDS011;66279;42.820;23.374;2023-05-16T11:38:14;20.80;;;10.65;;
77246;SDS011;66279;42.820;23.374;2023-05-16T11:40:41;22.90;;;11.55;;
77246;SDS011;66279;42.820;23.374;2023-05-16T11:43:08;24.90;;;10.93;;
77246;SDS011;66279;42.820;23.374;2023-05-16T11:45:33;21.73;;;11.75;;
77246;SDS011;66279;42.820;23.374;2023-05-16T11:48:02;27.98;;;12.90;;
77246;SDS011;66279;42.820;23.374;2023-05-16T11:50:28;32.03;;;11.05;;
77246;SDS011;66279;42.820;23.374;2023-05-16T11:52:55;20.10;;;10.40;;
77246;SDS011;66279;42.820;23.374;2023-05-16T11:55:27;21.15;;;11.70;;
77246;SDS011;66279;42.820;23.374;2023-05-16T11:57:55;16.65;;;8.95;;
77246;SDS011;66279;42.820;23.374;2023-05-16T12:00:22;26.05;;;11.70;;
77246;SDS011;66279;42.820;23.374;2023-05-16T12:02:49;17.90;;;9.82;;
77246;SDS011;66279;42.820;23.374;2023-05-16T12:05:16;19.83;;;9.90;;
77246;SDS011;66279;42.820;23.374;2023-05-16T12:07:43;19.42;;;10.73;;
77246;SDS011;66279;42.820;23.374;2023-05-16T12:10:10;22.30;;;11.20;;
77246;SDS011;66279;42.820;23.374;2023-05-16T12:12:41;16.48;;;9.65;;
77246;SDS011;66279;42.820;23.374;2023-05-16T12:15:08;24.05;;;11.85;;
77246;SDS011;66279;42.820;23.374;2023-05-16T12:17:35;20.67;;;10.43;;
77246;SDS011;66279;42.820;23.374;2023-05-16T12:20:02;23.10;;;10.85;;
77246;SDS011;66279;42.820;23.374;2023-05-16T12:24:57;29.90;;;11.93;;
77246;SDS011;66279;42.820;23.374;2023-05-16T12:27:24;28.60;;;12.05;;
77246;SDS011;66279;42.820;23.374;2023-05-16T12:29:51;21.52;;;11.23;;
77246;SDS011;66279;42.820;23.374;2023-05-16T12:32:17;21.27;;;11.07;;
77246;SDS011;66279;42.820;23.374;2023-05-16T12:34:50;24.88;;;11.65;;
77246;SDS011;66279;42.820;23.374;2023-05-16T12:37:16;24.15;;;12.07;;
77246;SDS011;66279;42.820;23.374;2023-05-16T12:39:42;24.90;;;11.65;;
77246;SDS011;66279;42.820;23.374;2023-05-16T12:42:11;26.02;;;12.10;;
77246;SDS011;66279;42.820;23.374;2023-05-16T12:44:37;21.77;;;12.68;;
77246;SDS011;66279;42.820;23.374;2023-05-16T12:47:03;23.77;;;11.52;;
77246;SDS011;66279;42.820;23.374;2023-05-16T12:49:36;21.13;;;10.82;;
77246;SDS011;66279;42.820;23.374;2023-05-16T12:52:08;21.75;;;11.43;;
77246;SDS011;66279;42.820;23.374;2023-05-16T12:54:41;18.63;;;10.65;;
77246;SDS011;66279;42.820;23.374;2023-05-16T12:57:07;19.13;;;10.52;;
77246;SDS011;66279;42.820;23.374;2023-05-16T12:59:34;23.35;;;10.48;;
77246;SDS011;66279;42.820;23.374;2023-05-16T13:01:59;35.97;;;13.18;;
77246;SDS011;66279;42.820;23.374;2023-05-16T13:04:25;23.27;;;11.15;;
77246;SDS011;66279;42.820;23.374;2023-05-16T13:06:50;23.52;;;11.98;;
77246;SDS011;66279;42.820;23.374;2023-05-16T13:09:17;24.00;;;11.55;;
77246;SDS011;66279;42.820;23.374;2023-05-16T13:11:43;24.95;;;11.80;;
77246;SDS011;66279;42.820;23.374;2023-05-16T13:14:09;24.02;;;12.93;;
77246;SDS011;66279;42.820;23.374;2023-05-16T13:16:34;27.38;;;13.60;;
77246;SDS011;66279;42.820;23.374;2023-05-16T13:19:00;25.27;;;12.73;;
77246;SDS011;66279;42.820;23.374;2023-05-16T13:21:26;26.92;;;13.77;;
77246;SDS011;66279;42.820;23.374;2023-05-16T13:23:54;29.80;;;12.52;;
77246;SDS011;66279;42.820;23.374;2023-05-16T13:26:19;34.38;;;13.95;;
77246;SDS011;66279;42.820;23.374;2023-05-16T13:28:46;23.95;;;12.45;;
77246;SDS011;66279;42.820;23.374;2023-05-16T13:31:15;27.73;;;11.68;;
77246;SDS011;66279;42.820;23.374;2023-05-16T13:33:41;30.88;;;12.35;;
77246;SDS011;66279;42.820;23.374;2023-05-16T13:36:06;24.75;;;11.88;;
77246;SDS011;66279;42.820;23.374;2023-05-16T13:38:32;22.67;;;12.05;;
77246;SDS011;66279;42.820;23.374;2023-05-16T13:40:57;29.02;;;12.32;;
77246;SDS011;66279;42.820;23.374;2023-05-16T13:43:23;31.80;;;11.48;;
77246;SDS011;66279;42.820;23.374;2023-05-16T13:45:48;31.25;;;13.05;;
77246;SDS011;66279;42.820;23.374;2023-05-16T13:48:14;21.50;;;9.48;;
77246;SDS011;66279;42.820;23.374;2023-05-16T13:50:40;21.13;;;11.80;;
77246;SDS011;66279;42.820;23.374;2023-05-16T13:53:06;26.65;;;12.48;;
77246;SDS011;66279;42.820;23.374;2023-05-16T13:55:32;26.45;;;12.35;;
77246;SDS011;66279;42.820;23.374;2023-05-16T13:57:58;24.45;;;11.65;;
77246;SDS011;66279;42.820;23.374;2023-05-16T14:00:24;26.08;;;11.88;;
77246;SDS011;66279;42.820;23.374;2023-05-16T14:02:50;26.05;;;12.25;;
77246;SDS011;66279;42.820;23.374;2023-05-16T14:05:16;66.75;;;25.85;;
77246;SDS011;66279;42.820;23.374;2023-05-16T14:07:42;89.13;;;31.20;;
77246;SDS011;66279;42.820;23.374;2023-05-16T14:10:08;27.95;;;13.88;;
77246;SDS011;66279;42.820;23.374;2023-05-16T14:12:35;27.63;;;14.90;;
77246;SDS011;66279;42.820;23.374;2023-05-16T14:15:02;29.08;;;14.60;;
77246;SDS011;66279;42.820;23.374;2023-05-16T14:17:29;32.47;;;13.43;;
77246;SDS011;66279;42.820;23.374;2023-05-16T14:19:54;27.92;;;12.68;;
77246;SDS011;66279;42.820;23.374;2023-05-16T14:22:20;29.05;;;13.40;;
77246;SDS011;66279;42.820;23.374;2023-05-16T14:24:46;27.33;;;13.93;;
77246;SDS011;66279;42.820;23.374;2023-05-16T14:27:13;42.03;;;16.00;;
77246;SDS011;66279;42.820;23.374;2023-05-16T14:29:43;35.97;;;13.82;;
77246;SDS011;66279;42.820;23.374;2023-05-16T14:32:09;30.58;;;14.80;;
77246;SDS011;66279;42.820;23.374;2023-05-16T14:34:36;33.08;;;13.65;;